createdAt,value
2022-11-18T00:01:19.454Z,21.45
2022-11-18T00:06:20.888Z,19.80
2022-11-18T00:08:48.953Z,19.52
2022-11-18T00:11:38.291Z,23.10
2022-11-18T00:14:20.651Z,19.90
2022-11-18T00:16:58.138Z,20.08
2022-11-18T00:19:34.064Z,21.27
2022-11-18T00:22:02.205Z,21.92
2022-11-18T00:24:30.414Z,18.98
2022-11-18T00:26:58.176Z,19.75
2022-11-18T00:29:28.297Z,19.05
2022-11-18T00:31:57.368Z,21.42
2022-11-18T00:34:25.696Z,22.73
2022-11-18T00:36:53.373Z,20.25
2022-11-18T00:39:21.899Z,22.30
2022-11-18T00:42:08.962Z,21.45
2022-11-18T00:44:37.241Z,19.37
2022-11-18T00:47:05.595Z,20.65
2022-11-18T00:49:33.205Z,20.73
2022-11-18T00:52:01.913Z,22.92
2022-11-18T00:54:29.858Z,21.40
2022-11-18T00:56:57.712Z,21.15
2022-11-18T00:59:26.277Z,20.23
2022-11-18T01:01:54.029Z,19.33
2022-11-18T01:04:21.917Z,20.15
2022-11-18T01:06:49.903Z,20.05
2022-11-18T01:09:17.870Z,20.48
2022-11-18T01:12:04.494Z,19.10
2022-11-18T01:14:32.694Z,19.42
2022-11-18T01:17:00.457Z,20.08
2022-11-18T01:19:28.166Z,18.37
2022-11-18T01:21:56.771Z,18.73
2022-11-18T01:24:24.426Z,18.12
2022-11-18T01:26:52.123Z,19.25
2022-11-18T01:29:20.349Z,23.23
2022-11-18T01:32:09.345Z,16.85
2022-11-18T01:34:36.233Z,18.27
2022-11-18T01:37:03.809Z,21.70
2022-11-18T01:39:31.696Z,16.87
2022-11-18T01:41:59.672Z,18.25
2022-11-18T01:45:05.400Z,17.80
2022-11-18T01:47:57.272Z,17.73
2022-11-18T01:50:26.608Z,19.08
2022-11-18T01:52:59.943Z,21.08
2022-11-18T01:55:32.749Z,18.90
2022-11-18T01:58:15.766Z,16.70
2022-11-18T02:00:43.467Z,20.50
2022-11-18T02:03:12.355Z,18.25
2022-11-18T02:05:42.498Z,17.80
2022-11-18T02:08:10.587Z,16.95
2022-11-18T02:10:38.290Z,19.87
2022-11-18T02:13:07.769Z,21.92
2022-11-18T02:15:45.518Z,20.15
2022-11-18T02:18:25.098Z,19.55
2022-11-18T02:21:01.534Z,18.87
2022-11-18T02:23:43.898Z,21.05
2022-11-18T02:26:36.569Z,15.63
2022-11-18T02:29:09.534Z,17.62
2022-11-18T02:31:43.589Z,16.77
2022-11-18T02:34:37.434Z,16.87
2022-11-18T02:37:20.763Z,17.55
2022-11-18T02:39:56.065Z,17.67
2022-11-18T02:42:26.289Z,17.55
2022-11-18T02:45:00.059Z,18.10
2022-11-18T02:47:30.743Z,18.42
2022-11-18T02:50:03.338Z,15.93
2022-11-18T02:52:33.703Z,15.70
2022-11-18T02:55:03.040Z,15.55
2022-11-18T02:57:33.630Z,19.67
2022-11-18T03:00:01.278Z,17.27
2022-11-18T03:02:29.066Z,15.70
2022-11-18T03:04:59.406Z,16.87
2022-11-18T03:07:34.814Z,15.38
2022-11-18T03:10:04.204Z,18.45
2022-11-18T03:12:50.122Z,18.80
2022-11-18T03:15:31.262Z,18.15
2022-11-18T03:18:16.535Z,17.90
2022-11-18T03:20:58.047Z,17.67
2022-11-18T03:23:36.234Z,18.98
2022-11-18T03:26:09.409Z,19.12
2022-11-18T03:28:41.251Z,16.48
2022-11-18T03:31:18.183Z,19.33
2022-11-18T03:33:52.474Z,17.33
2022-11-18T03:36:24.814Z,18.42
2022-11-18T03:38:55.661Z,18.15
2022-11-18T03:41:26.537Z,19.42
2022-11-18T03:44:13.362Z,18.48
2022-11-18T03:46:49.259Z,20.05
2022-11-18T03:49:27.050Z,20.75
2022-11-18T03:52:02.350Z,22.02
2022-11-18T03:54:35.611Z,22.13
2022-11-18T03:57:13.854Z,23.60
2022-11-18T03:59:48.887Z,20.73
2022-11-18T04:02:23.391Z,19.40
2022-11-18T04:04:54.350Z,23.42
2022-11-18T04:07:32.679Z,22.48
2022-11-18T04:10:06.602Z,19.92
2022-11-18T04:12:43.206Z,19.23
2022-11-18T04:15:11.569Z,22.08
2022-11-18T04:17:41.957Z,23.23
2022-11-18T04:20:21.671Z,19.60
2022-11-18T04:22:49.639Z,19.92
2022-11-18T04:25:17.375Z,20.50
2022-11-18T04:27:45.170Z,22.35
2022-11-18T04:30:13.446Z,22.37
2022-11-18T04:32:41.200Z,23.62
2022-11-18T04:35:09.371Z,18.30
2022-11-18T04:37:37.349Z,20.23
2022-11-18T04:40:05.659Z,23.80
2022-11-18T04:42:33.407Z,23.30
2022-11-18T04:45:01.611Z,22.33
2022-11-18T04:47:29.662Z,22.62
2022-11-18T04:49:57.342Z,20.92
2022-11-18T04:52:25.431Z,49.97
2022-11-18T04:54:53.754Z,68.37
2022-11-18T04:57:21.570Z,38.53
2022-11-18T04:59:50.054Z,29.25
2022-11-18T05:02:17.765Z,26.52
2022-11-18T05:04:45.457Z,23.92
2022-11-18T05:07:15.332Z,25.23
2022-11-18T05:09:43.327Z,20.77
2022-11-18T05:12:44.301Z,20.52
2022-11-18T05:15:12.243Z,19.90
2022-11-18T05:17:39.921Z,22.37
2022-11-18T05:20:09.034Z,20.90
2022-11-18T05:22:37.086Z,27.73
2022-11-18T05:25:05.064Z,23.33
2022-11-18T05:27:32.843Z,21.20
2022-11-18T05:30:01.068Z,23.27
2022-11-18T05:32:28.766Z,23.25
2022-11-18T05:34:56.381Z,31.10
2022-11-18T05:37:24.339Z,29.70
2022-11-18T05:39:51.975Z,27.08
2022-11-18T05:42:38.215Z,30.90
2022-11-18T05:45:06.944Z,23.38
2022-11-18T05:47:54.537Z,26.10
2022-11-18T05:50:22.417Z,30.67
2022-11-18T05:52:50.064Z,29.45
2022-11-18T05:55:19.787Z,30.00
2022-11-18T05:57:49.448Z,29.25
2022-11-18T06:00:17.846Z,28.95
2022-11-18T06:02:49.925Z,31.98
2022-11-18T06:05:19.214Z,33.30
2022-11-18T06:07:47.406Z,29.30
2022-11-18T06:10:22.808Z,26.67
2022-11-18T06:12:56.864Z,35.75
2022-11-18T06:15:27.991Z,39.80
2022-11-18T06:18:10.231Z,35.80
2022-11-18T06:20:40.554Z,32.35
2022-11-18T06:23:08.752Z,29.02
2022-11-18T06:25:40.038Z,39.47
2022-11-18T06:28:10.297Z,31.08
2022-11-18T06:30:38.728Z,34.40
2022-11-18T06:33:06.961Z,31.40
2022-11-18T06:35:35.406Z,44.70
2022-11-18T06:38:03.451Z,38.42
2022-11-18T06:40:34.689Z,34.60
2022-11-18T06:43:31.677Z,37.00
2022-11-18T06:46:19.348Z,42.92
2022-11-18T06:48:47.693Z,35.22
2022-11-18T06:51:15.348Z,40.55
2022-11-18T06:53:43.169Z,35.20
2022-11-18T06:56:13.534Z,30.30
2022-11-18T06:58:41.432Z,34.05
2022-11-18T07:01:15.399Z,25.88
2022-11-18T07:03:45.661Z,26.37
2022-11-18T07:06:16.997Z,27.45
2022-11-18T07:08:46.188Z,31.58
2022-11-18T07:11:17.029Z,32.08
2022-11-18T07:13:45.923Z,30.00
2022-11-18T07:16:19.782Z,51.28
2022-11-18T07:18:49.770Z,28.87
2022-11-18T07:21:23.141Z,25.60
2022-11-18T07:23:51.691Z,29.55
2022-11-18T07:26:20.243Z,24.05
2022-11-18T07:28:48.370Z,23.98
2022-11-18T07:31:18.652Z,25.00
2022-11-18T07:33:47.696Z,28.05
2022-11-18T07:36:20.606Z,20.95
2022-11-18T07:38:49.690Z,24.65
2022-11-18T07:41:23.563Z,24.12
2022-11-18T07:43:54.954Z,19.65
2022-11-18T07:46:29.378Z,28.58
2022-11-18T07:48:59.233Z,24.15
2022-11-18T07:51:30.382Z,23.98
2022-11-18T07:53:58.440Z,24.98
2022-11-18T07:56:26.817Z,20.60
2022-11-18T07:58:55.768Z,21.98
2022-11-18T08:01:29.226Z,24.02
2022-11-18T08:04:04.071Z,23.48
2022-11-18T08:06:33.576Z,21.67
2022-11-18T08:09:01.839Z,21.75
2022-11-18T08:11:29.634Z,25.15
2022-11-18T08:13:57.363Z,22.80
2022-11-18T08:16:26.630Z,24.17
2022-11-18T08:18:54.987Z,22.40
2022-11-18T08:21:23.505Z,23.48
2022-11-18T08:23:55.410Z,25.95
2022-11-18T08:26:23.715Z,25.98
2022-11-18T08:28:52.068Z,28.80
2022-11-18T08:31:24.857Z,28.25
2022-11-18T08:33:57.047Z,27.58
2022-11-18T08:36:28.336Z,36.35
2022-11-18T08:38:58.395Z,23.60
2022-11-18T08:41:32.457Z,25.98
2022-11-18T08:44:01.862Z,35.58
2022-11-18T08:46:30.665Z,26.48
2022-11-18T08:48:58.929Z,24.02
2022-11-18T08:51:27.340Z,24.83
2022-11-18T08:53:55.501Z,27.05
2022-11-18T08:56:24.815Z,33.45
2022-11-18T08:58:53.492Z,30.80
2022-11-18T09:01:21.362Z,26.17
2022-11-18T09:03:49.867Z,23.73
2022-11-18T09:06:20.325Z,25.95
2022-11-18T09:08:48.287Z,23.98
2022-11-18T09:11:21.712Z,25.73
2022-11-18T09:15:06.197Z,26.15
2022-11-18T09:16:42.614Z,25.17
2022-11-18T09:19:40.168Z,36.75
2022-11-18T09:21:58.264Z,68.95
2022-11-18T09:24:26.246Z,28.15
2022-11-18T09:26:54.053Z,33.83
2022-11-18T09:29:25.600Z,28.90
2022-11-18T09:31:54.490Z,39.17
2022-11-18T09:34:23.131Z,67.35
2022-11-18T09:36:50.960Z,42.50
2022-11-18T09:39:19.380Z,25.20
2022-11-18T09:41:53.961Z,29.95
2022-11-18T09:45:00.116Z,30.67
2022-11-18T09:47:33.842Z,30.98
2022-11-18T09:53:22.927Z,28.08
2022-11-18T09:55:52.542Z,27.35
2022-11-18T09:58:36.378Z,26.30
2022-11-18T10:01:12.615Z,33.38
2022-11-18T10:03:41.016Z,29.30
2022-11-18T10:06:09.636Z,35.67
2022-11-18T10:08:55.757Z,30.02
2022-11-18T10:11:41.479Z,29.27
2022-11-18T10:14:37.461Z,21.85
2022-11-18T10:17:43.542Z,15.82
2022-11-18T10:20:11.119Z,16.42
2022-11-18T10:22:48.358Z,20.05
2022-11-18T10:25:17.762Z,22.00
2022-11-18T10:27:48.380Z,23.48
2022-11-18T10:30:21.992Z,26.07
2022-11-18T10:33:02.064Z,30.02
2022-11-18T10:35:36.591Z,31.30
2022-11-18T10:38:13.792Z,25.20
2022-11-18T10:40:56.468Z,23.75
2022-11-18T10:43:56.588Z,30.25
2022-11-18T10:46:28.433Z,29.60
2022-11-18T10:49:11.392Z,29.75
2022-11-18T10:51:48.444Z,33.88
2022-11-18T10:54:25.088Z,28.45
2022-11-18T10:56:58.077Z,26.83
2022-11-18T10:59:29.283Z,29.05
2022-11-18T11:02:12.897Z,28.90
2022-11-18T11:04:41.856Z,31.83
2022-11-18T11:07:36.759Z,30.77
2022-11-18T11:10:04.718Z,47.58
2022-11-18T11:12:35.044Z,37.53
2022-11-18T11:15:11.491Z,35.40
2022-11-18T11:17:46.061Z,42.85
2022-11-18T11:20:24.135Z,46.17
2022-11-18T11:22:52.105Z,49.08
2022-11-18T11:28:32.784Z,49.50
2022-11-18T11:31:09.330Z,48.47
2022-11-18T11:33:57.872Z,48.67
2022-11-18T11:37:03.005Z,51.17
2022-11-18T11:39:40.595Z,52.53
2022-11-18T11:42:27.185Z,57.03
2022-11-18T11:45:18.142Z,51.17
2022-11-18T11:48:13.834Z,55.42
2022-11-18T11:51:05.548Z,70.35
2022-11-18T11:54:22.273Z,59.33
2022-11-18T11:57:05.665Z,59.85
2022-11-18T12:00:11.856Z,62.35
2022-11-18T12:03:00.721Z,61.42
2022-11-18T12:05:43.236Z,52.90
2022-11-18T12:08:24.614Z,57.38
2022-11-18T12:11:14.662Z,50.72
2022-11-18T12:13:52.639Z,50.30
2022-11-18T12:16:39.667Z,63.47
2022-11-18T12:19:20.392Z,60.97
2022-11-18T12:21:53.272Z,55.17
2022-11-18T12:24:37.786Z,58.45
2022-11-18T12:27:10.124Z,53.17
2022-11-18T12:29:50.306Z,50.63
2022-11-18T12:32:42.845Z,54.20
2022-11-18T12:35:13.504Z,55.47
2022-11-18T12:37:53.499Z,55.25
2022-11-18T12:40:36.240Z,53.90
2022-11-18T12:43:50.813Z,47.03
2022-11-18T12:46:27.249Z,54.22
2022-11-18T12:48:55.253Z,52.60
2022-11-18T12:51:24.600Z,55.35
2022-11-18T12:53:54.078Z,58.58
2022-11-18T12:56:34.825Z,62.08
2022-11-18T12:59:03.065Z,53.17
2022-11-18T13:01:35.467Z,49.90
2022-11-18T13:04:21.522Z,55.40
2022-11-18T13:06:53.109Z,52.97
2022-11-18T13:09:24.829Z,60.12
2022-11-18T13:12:18.499Z,54.92
2022-11-18T13:15:15.302Z,60.05
2022-11-18T13:17:54.776Z,76.28
2022-11-18T13:20:31.197Z,60.90
2022-11-18T13:23:47.502Z,55.97
2022-11-18T13:26:19.980Z,57.83
2022-11-18T13:29:17.944Z,55.20
2022-11-18T13:32:01.466Z,54.67
2022-11-18T13:34:32.139Z,58.30
2022-11-18T13:37:01.168Z,56.00
2022-11-18T13:39:32.431Z,55.80
2022-11-18T13:42:04.175Z,57.38
2022-11-18T13:44:37.764Z,58.95
2022-11-18T13:47:23.816Z,57.47
2022-11-18T13:50:05.016Z,57.20
2022-11-18T13:52:56.066Z,55.38
2022-11-18T13:55:27.860Z,60.10
2022-11-18T13:58:12.066Z,53.87
2022-11-18T14:00:40.070Z,60.45
2022-11-18T14:03:29.666Z,51.63
2022-11-18T14:05:58.188Z,52.92
2022-11-18T14:08:36.073Z,53.47
2022-11-18T14:11:05.398Z,50.67
2022-11-18T14:13:37.124Z,53.87
2022-11-18T14:16:31.672Z,52.95
2022-11-18T14:18:59.940Z,50.03
2022-11-18T14:21:30.572Z,48.17
2022-11-18T14:23:58.743Z,47.58
2022-11-18T14:26:35.965Z,48.00
2022-11-18T14:29:21.176Z,68.40
2022-11-18T14:32:11.049Z,65.95
2022-11-18T14:34:38.740Z,73.28
2022-11-18T14:37:12.731Z,71.75
2022-11-18T14:39:41.167Z,88.22
2022-11-18T14:42:13.212Z,47.95
2022-11-18T14:44:40.951Z,34.45
2022-11-18T14:47:28.501Z,12.50
2022-11-18T14:49:56.156Z,11.93
2022-11-18T14:52:24.211Z,14.25
2022-11-18T14:54:52.812Z,17.70
2022-11-18T14:57:20.483Z,29.42
2022-11-18T14:59:48.392Z,13.15
2022-11-18T15:02:17.728Z,19.90
2022-11-18T15:04:45.436Z,16.67
2022-11-18T15:07:21.507Z,11.35
2022-11-18T15:09:51.616Z,11.88
2022-11-18T15:12:19.610Z,11.55
2022-11-18T15:14:47.261Z,9.27
2022-11-18T15:17:14.963Z,10.70
2022-11-18T15:19:43.176Z,6.28
2022-11-18T15:22:11.514Z,21.33
2022-11-18T15:24:41.131Z,17.30
2022-11-18T15:27:10.206Z,6.03
2022-11-18T15:30:01.505Z,9.80
2022-11-18T15:32:50.099Z,5.80
2022-11-18T15:35:34.786Z,4.80
2022-11-18T15:38:03.454Z,4.90
2022-11-18T15:40:31.441Z,4.12
2022-11-18T15:42:59.157Z,4.87
2022-11-18T15:48:05.942Z,6.85
2022-11-18T15:51:15.754Z,7.78
2022-11-18T15:54:03.467Z,8.98
2022-11-18T15:56:51.825Z,7.50
2022-11-18T15:59:39.885Z,8.02
2022-11-18T16:02:51.177Z,21.75
2022-11-18T16:06:00.317Z,7.82
2022-11-18T16:08:29.576Z,7.95
2022-11-18T16:12:33.485Z,94.70
2022-11-18T16:15:43.820Z,19.12
2022-11-18T16:19:17.091Z,6.37
2022-11-18T16:22:24.742Z,7.25
2022-11-18T16:24:53.380Z,5.62
2022-11-18T16:27:25.840Z,6.57
2022-11-18T16:30:33.241Z,5.37
2022-11-18T16:33:20.758Z,6.65
2022-11-18T16:36:16.950Z,6.65
2022-11-18T16:39:28.144Z,11.25
2022-11-18T16:42:42.082Z,8.63
2022-11-18T16:48:02.531Z,8.05
2022-11-18T16:51:17.680Z,6.80
2022-11-18T16:54:46.355Z,7.50
2022-11-18T16:57:15.012Z,5.43
2022-11-18T17:00:05.423Z,7.05
2022-11-18T17:02:37.417Z,7.65
2022-11-18T17:05:06.107Z,6.72
2022-11-18T17:07:38.310Z,13.02
2022-11-18T17:10:19.705Z,5.93
2022-11-18T17:12:50.971Z,4.47
2022-11-18T17:15:19.500Z,8.00
2022-11-18T17:18:07.017Z,9.55
2022-11-18T17:20:36.530Z,14.93
2022-11-18T17:23:04.338Z,50.30
2022-11-18T17:25:51.865Z,24.60
2022-11-18T17:28:20.146Z,7.22
2022-11-18T17:30:50.096Z,6.72
2022-11-18T17:33:19.287Z,8.25
2022-11-18T17:36:18.454Z,10.15
2022-11-18T17:39:07.105Z,14.93
2022-11-18T17:41:54.024Z,13.77
2022-11-18T17:44:22.059Z,10.00
2022-11-18T17:46:50.428Z,11.40
2022-11-18T17:49:22.421Z,7.90
2022-11-18T17:51:53.801Z,11.70
2022-11-18T17:54:22.414Z,13.52
2022-11-18T17:56:54.687Z,16.80
2022-11-18T17:59:23.191Z,7.75
2022-11-18T18:01:58.956Z,13.88
2022-11-18T18:04:27.773Z,21.08
2022-11-18T18:07:15.331Z,15.70
2022-11-18T18:10:06.480Z,12.88
2022-11-18T18:12:54.649Z,11.90
2022-11-18T18:15:22.644Z,15.18
2022-11-18T18:17:50.250Z,16.52
2022-11-18T18:20:18.573Z,9.25
2022-11-18T18:23:06.796Z,8.63
2022-11-18T18:25:54.316Z,11.15
2022-11-18T18:28:43.134Z,9.40
2022-11-18T18:31:36.297Z,7.37
2022-11-18T18:34:24.736Z,8.20
2022-11-18T18:37:32.368Z,5.12
2022-11-18T18:40:20.040Z,9.73
2022-11-18T18:43:11.799Z,5.82
2022-11-18T18:46:31.137Z,5.15
2022-11-18T18:49:24.554Z,5.57
2022-11-18T18:52:12.855Z,4.93
2022-11-18T18:55:00.502Z,9.05
2022-11-18T18:57:49.345Z,6.85
2022-11-18T19:00:39.406Z,4.12
2022-11-18T19:03:47.929Z,5.32
2022-11-18T19:06:58.782Z,5.78
2022-11-18T19:09:45.361Z,6.53
2022-11-18T19:12:53.169Z,13.48
2022-11-18T19:16:07.483Z,12.93
2022-11-18T19:18:36.228Z,27.73
2022-11-18T19:21:06.439Z,9.27
2022-11-18T19:23:55.472Z,6.95
2022-11-18T19:26:24.304Z,5.95
2022-11-18T19:29:11.813Z,2.85
2022-11-18T19:31:58.958Z,4.78
2022-11-18T19:34:48.258Z,3.08
2022-11-18T19:37:38.176Z,3.30
2022-11-18T19:40:28.517Z,3.47
2022-11-18T19:42:56.679Z,4.10
2022-11-18T19:45:24.660Z,6.78
2022-11-18T19:47:52.547Z,2.95
2022-11-18T19:50:20.767Z,3.00
2022-11-18T19:52:48.791Z,4.07
2022-11-18T19:55:19.414Z,3.60
2022-11-18T19:57:47.584Z,3.03
2022-11-18T20:00:16.470Z,4.00
2022-11-18T20:02:44.632Z,3.90
2022-11-18T20:05:31.265Z,4.47
2022-11-18T20:07:59.335Z,3.50
2022-11-18T20:10:28.178Z,4.50
2022-11-18T20:12:57.759Z,5.10
2022-11-18T20:15:26.001Z,3.37
2022-11-18T20:17:53.715Z,8.23
2022-11-18T20:20:21.546Z,5.10
2022-11-18T20:22:49.663Z,4.12
2022-11-18T20:25:17.508Z,4.62
2022-11-18T20:27:45.424Z,3.85
2022-11-18T20:30:16.240Z,4.00
2022-11-18T20:32:46.344Z,3.73
2022-11-18T20:35:15.114Z,6.83
2022-11-18T20:38:02.947Z,3.97
2022-11-18T20:40:32.300Z,3.87
2022-11-18T20:43:40.848Z,4.00
2022-11-18T20:47:09.873Z,4.03
2022-11-18T20:50:17.638Z,4.22
2022-11-18T20:53:47.111Z,3.85
2022-11-18T20:56:54.999Z,3.95
2022-11-18T21:00:23.404Z,14.68
2022-11-18T21:03:14.517Z,5.40
2022-11-18T21:06:43.091Z,3.65
2022-11-18T21:09:52.056Z,8.18
2022-11-18T21:13:21.712Z,7.87
2022-11-18T21:16:23.319Z,5.60
2022-11-18T21:19:51.543Z,5.32
2022-11-18T21:22:57.102Z,5.05
2022-11-18T21:26:27.349Z,4.78
2022-11-18T21:29:33.330Z,5.87
2022-11-18T21:33:05.877Z,6.28
2022-11-18T21:36:13.868Z,11.10
2022-11-18T21:39:41.736Z,7.72
2022-11-18T21:42:49.551Z,5.50
2022-11-18T21:46:18.349Z,5.00
2022-11-18T21:49:26.631Z,4.60
2022-11-18T21:52:55.724Z,5.43
2022-11-18T21:56:05.841Z,5.87
2022-11-18T21:59:15.504Z,5.75
2022-11-18T22:02:23.428Z,6.05
2022-11-18T22:05:56.934Z,7.28
2022-11-18T22:09:06.110Z,5.07
2022-11-18T22:12:35.467Z,7.30
2022-11-18T22:15:33.205Z,4.78
2022-11-18T22:19:01.401Z,5.03
2022-11-18T22:21:52.838Z,8.85
2022-11-18T22:24:41.594Z,5.07
2022-11-18T22:27:49.208Z,4.43
2022-11-18T22:30:37.678Z,5.25
2022-11-18T22:33:36.212Z,6.18
2022-11-18T22:37:06.862Z,6.07
2022-11-18T22:40:14.824Z,5.87
2022-11-18T22:43:25.780Z,4.60
2022-11-18T22:46:33.427Z,8.02
2022-11-18T22:49:24.134Z,5.45
2022-11-18T22:52:31.728Z,5.87
2022-11-18T22:56:08.539Z,10.50
2022-11-18T22:58:58.207Z,5.32
2022-11-18T23:02:27.775Z,7.30
2022-11-18T23:05:36.652Z,6.85
2022-11-18T23:08:55.669Z,6.85
2022-11-18T23:12:04.492Z,5.97
2022-11-18T23:15:12.728Z,6.55
2022-11-18T23:18:00.493Z,7.40
2022-11-18T23:21:29.233Z,7.97
2022-11-18T23:23:58.509Z,7.15
2022-11-18T23:27:06.798Z,7.78
2022-11-18T23:30:14.459Z,8.57
2022-11-18T23:33:24.006Z,7.68
2022-11-18T23:36:31.573Z,7.07
2022-11-18T23:39:21.177Z,8.32
2022-11-18T23:42:28.491Z,7.70
2022-11-18T23:45:20.554Z,7.93
2022-11-18T23:48:41.620Z,7.65
2022-11-18T23:51:50.355Z,9.32
2022-11-18T23:54:59.542Z,10.10
2022-11-18T23:58:08.023Z,13.35
